sensor_id;sensor_type;location;lat;lon;timestamp;P1;durP1;ratioP1;P2;durP2;ratioP2
78197;SDS011;67472;51.554;7.812;2023-07-20T00:02:38;15.07;;;9.68;;
78197;SDS011;67472;51.554;7.812;2023-07-20T00:05:24;17.77;;;9.38;;
78197;SDS011;67472;51.554;7.812;2023-07-20T00:08:11;13.70;;;9.70;;
78197;SDS011;67472;51.554;7.812;2023-07-20T00:10:57;13.98;;;9.52;;
78197;SDS011;67472;51.554;7.812;2023-07-20T00:13:44;19.25;;;10.02;;
78197;SDS011;67472;51.554;7.812;2023-07-20T00:16:30;22.42;;;10.55;;
78197;SDS011;67472;51.554;7.812;2023-07-20T00:19:19;16.95;;;9.98;;
78197;SDS011;67472;51.554;7.812;2023-07-20T00:22:05;10.57;;;7.95;;
78197;SDS011;67472;51.554;7.812;2023-07-20T00:24:52;19.98;;;10.05;;
78197;SDS011;67472;51.554;7.812;2023-07-20T00:27:38;16.70;;;9.57;;
78197;SDS011;67472;51.554;7.812;2023-07-20T00:30:24;16.27;;;9.38;;
78197;SDS011;67472;51.554;7.812;2023-07-20T00:33:11;17.52;;;9.98;;
78197;SDS011;67472;51.554;7.812;2023-07-20T00:35:59;19.85;;;10.10;;
78197;SDS011;67472;51.554;7.812;2023-07-20T00:38:46;14.18;;;9.30;;
78197;SDS011;67472;51.554;7.812;2023-07-20T00:41:32;18.75;;;10.32;;
78197;SDS011;67472;51.554;7.812;2023-07-20T00:44:18;20.77;;;10.02;;
78197;SDS011;67472;51.554;7.812;2023-07-20T00:47:06;17.70;;;8.95;;
78197;SDS011;67472;51.554;7.812;2023-07-20T00:49:52;10.63;;;7.47;;
78197;SDS011;67472;51.554;7.812;2023-07-20T00:52:41;13.80;;;8.38;;
78197;SDS011;67472;51.554;7.812;2023-07-20T00:55:29;18.90;;;8.68;;
78197;SDS011;67472;51.554;7.812;2023-07-20T00:58:15;19.77;;;9.48;;
78197;SDS011;67472;51.554;7.812;2023-07-20T01:01:02;18.23;;;9.55;;
78197;SDS011;67472;51.554;7.812;2023-07-20T01:03:49;29.92;;;9.57;;
78197;SDS011;67472;51.554;7.812;2023-07-20T01:06:37;16.15;;;9.63;;
78197;SDS011;67472;51.554;7.812;2023-07-20T01:09:34;16.50;;;9.27;;
78197;SDS011;67472;51.554;7.812;2023-07-20T01:12:26;25.45;;;10.30;;
78197;SDS011;67472;51.554;7.812;2023-07-20T01:15:16;25.38;;;9.48;;
78197;SDS011;67472;51.554;7.812;2023-07-20T01:18:02;30.35;;;10.70;;
78197;SDS011;67472;51.554;7.812;2023-07-20T01:20:49;23.02;;;9.98;;
78197;SDS011;67472;51.554;7.812;2023-07-20T01:23:54;31.10;;;10.65;;
78197;SDS011;67472;51.554;7.812;2023-07-20T01:27:04;18.40;;;10.25;;
78197;SDS011;67472;51.554;7.812;2023-07-20T01:30:18;14.40;;;10.32;;
78197;SDS011;67472;51.554;7.812;2023-07-20T01:33:24;21.02;;;10.63;;
78197;SDS011;67472;51.554;7.812;2023-07-20T01:36:13;25.88;;;11.40;;
78197;SDS011;67472;51.554;7.812;2023-07-20T01:39:07;19.77;;;10.73;;
78197;SDS011;67472;51.554;7.812;2023-07-20T01:41:56;26.13;;;10.45;;
78197;SDS011;67472;51.554;7.812;2023-07-20T01:44:43;21.77;;;11.05;;
78197;SDS011;67472;51.554;7.812;2023-07-20T01:47:29;21.35;;;11.15;;
78197;SDS011;67472;51.554;7.812;2023-07-20T01:50:19;15.55;;;9.40;;
78197;SDS011;67472;51.554;7.812;2023-07-20T01:53:06;31.17;;;11.82;;
78197;SDS011;67472;51.554;7.812;2023-07-20T01:55:52;17.20;;;11.23;;
78197;SDS011;67472;51.554;7.812;2023-07-20T01:58:39;21.15;;;11.20;;
78197;SDS011;67472;51.554;7.812;2023-07-20T02:01:25;20.73;;;10.40;;
78197;SDS011;67472;51.554;7.812;2023-07-20T02:04:13;21.60;;;10.68;;
78197;SDS011;67472;51.554;7.812;2023-07-20T02:07:01;19.35;;;10.57;;
78197;SDS011;67472;51.554;7.812;2023-07-20T02:09:47;23.50;;;10.85;;
78197;SDS011;67472;51.554;7.812;2023-07-20T02:12:35;17.08;;;10.13;;
78197;SDS011;67472;51.554;7.812;2023-07-20T02:15:22;18.98;;;9.60;;
78197;SDS011;67472;51.554;7.812;2023-07-20T02:18:09;25.63;;;11.07;;
78197;SDS011;67472;51.554;7.812;2023-07-20T02:20:56;23.73;;;11.10;;
78197;SDS011;67472;51.554;7.812;2023-07-20T02:23:45;17.77;;;11.13;;
78197;SDS011;67472;51.554;7.812;2023-07-20T02:26:31;19.45;;;10.60;;
78197;SDS011;67472;51.554;7.812;2023-07-20T02:29:17;17.58;;;9.57;;
78197;SDS011;67472;51.554;7.812;2023-07-20T02:32:04;26.75;;;11.30;;
78197;SDS011;67472;51.554;7.812;2023-07-20T02:34:52;24.35;;;11.88;;
78197;SDS011;67472;51.554;7.812;2023-07-20T02:37:38;17.33;;;11.30;;
78197;SDS011;67472;51.554;7.812;2023-07-20T02:40:26;23.10;;;11.85;;
78197;SDS011;67472;51.554;7.812;2023-07-20T02:43:12;23.70;;;12.38;;
78197;SDS011;67472;51.554;7.812;2023-07-20T02:45:58;20.20;;;12.43;;
78197;SDS011;67472;51.554;7.812;2023-07-20T02:48:45;23.02;;;11.70;;
78197;SDS011;67472;51.554;7.812;2023-07-20T02:51:31;30.55;;;13.30;;
78197;SDS011;67472;51.554;7.812;2023-07-20T02:54:17;28.17;;;12.30;;
78197;SDS011;67472;51.554;7.812;2023-07-20T02:57:05;24.25;;;12.75;;
78197;SDS011;67472;51.554;7.812;2023-07-20T02:59:54;27.42;;;14.10;;
78197;SDS011;67472;51.554;7.812;2023-07-20T03:02:40;25.70;;;13.07;;
78197;SDS011;67472;51.554;7.812;2023-07-20T03:05:27;27.40;;;13.57;;
78197;SDS011;67472;51.554;7.812;2023-07-20T03:08:14;23.35;;;13.15;;
78197;SDS011;67472;51.554;7.812;2023-07-20T03:11:00;30.80;;;14.63;;
78197;SDS011;67472;51.554;7.812;2023-07-20T03:13:49;31.48;;;15.13;;
78197;SDS011;67472;51.554;7.812;2023-07-20T03:16:35;22.20;;;13.65;;
78197;SDS011;67472;51.554;7.812;2023-07-20T03:19:22;24.20;;;14.57;;
78197;SDS011;67472;51.554;7.812;2023-07-20T03:22:08;21.73;;;14.05;;
78197;SDS011;67472;51.554;7.812;2023-07-20T03:24:55;28.80;;;14.93;;
78197;SDS011;67472;51.554;7.812;2023-07-20T03:27:41;23.00;;;14.98;;
78197;SDS011;67472;51.554;7.812;2023-07-20T03:30:31;23.65;;;14.25;;
78197;SDS011;67472;51.554;7.812;2023-07-20T03:33:17;23.05;;;14.85;;
78197;SDS011;67472;51.554;7.812;2023-07-20T03:36:04;18.38;;;12.90;;
78197;SDS011;67472;51.554;7.812;2023-07-20T03:38:54;18.90;;;11.57;;
78197;SDS011;67472;51.554;7.812;2023-07-20T03:41:40;12.75;;;9.05;;
78197;SDS011;67472;51.554;7.812;2023-07-20T03:44:29;13.32;;;8.57;;
78197;SDS011;67472;51.554;7.812;2023-07-20T03:47:17;16.10;;;8.48;;
78197;SDS011;67472;51.554;7.812;2023-07-20T03:50:03;7.18;;;5.90;;
78197;SDS011;67472;51.554;7.812;2023-07-20T03:52:50;8.15;;;5.50;;
78197;SDS011;67472;51.554;7.812;2023-07-20T03:55:39;6.88;;;4.72;;
78197;SDS011;67472;51.554;7.812;2023-07-20T03:58:26;11.13;;;4.75;;
78197;SDS011;67472;51.554;7.812;2023-07-20T04:01:13;7.07;;;4.78;;
78197;SDS011;67472;51.554;7.812;2023-07-20T04:04:04;7.00;;;4.43;;
78197;SDS011;67472;51.554;7.812;2023-07-20T04:06:51;5.00;;;4.40;;
78197;SDS011;67472;51.554;7.812;2023-07-20T04:09:38;7.13;;;4.40;;
78197;SDS011;67472;51.554;7.812;2023-07-20T04:12:26;8.60;;;5.45;;
78197;SDS011;67472;51.554;7.812;2023-07-20T04:15:12;7.80;;;6.40;;
78197;SDS011;67472;51.554;7.812;2023-07-20T04:17:59;8.80;;;6.68;;
78197;SDS011;67472;51.554;7.812;2023-07-20T04:20:48;10.05;;;8.25;;
78197;SDS011;67472;51.554;7.812;2023-07-20T04:23:34;8.82;;;6.97;;
78197;SDS011;67472;51.554;7.812;2023-07-20T04:26:21;8.50;;;6.45;;
78197;SDS011;67472;51.554;7.812;2023-07-20T04:29:08;7.97;;;5.90;;
78197;SDS011;67472;51.554;7.812;2023-07-20T04:31:59;7.72;;;5.57;;
78197;SDS011;67472;51.554;7.812;2023-07-20T04:34:47;7.93;;;5.03;;
78197;SDS011;67472;51.554;7.812;2023-07-20T04:37:36;8.77;;;5.75;;
78197;SDS011;67472;51.554;7.812;2023-07-20T04:40:22;6.70;;;5.57;;
78197;SDS011;67472;51.554;7.812;2023-07-20T04:43:09;8.98;;;6.13;;
78197;SDS011;67472;51.554;7.812;2023-07-20T04:45:56;7.43;;;6.25;;
78197;SDS011;67472;51.554;7.812;2023-07-20T04:48:43;8.50;;;7.05;;
78197;SDS011;67472;51.554;7.812;2023-07-20T04:51:29;8.90;;;7.40;;
78197;SDS011;67472;51.554;7.812;2023-07-20T04:54:18;10.65;;;8.40;;
78197;SDS011;67472;51.554;7.812;2023-07-20T04:57:08;10.27;;;8.90;;
78197;SDS011;67472;51.554;7.812;2023-07-20T05:00:03;11.15;;;9.93;;
78197;SDS011;67472;51.554;7.812;2023-07-20T05:02:56;12.55;;;10.48;;
78197;SDS011;67472;51.554;7.812;2023-07-20T05:05:46;14.50;;;11.77;;
78197;SDS011;67472;51.554;7.812;2023-07-20T05:08:34;12.65;;;10.80;;
78197;SDS011;67472;51.554;7.812;2023-07-20T05:11:22;14.80;;;12.57;;
78197;SDS011;67472;51.554;7.812;2023-07-20T05:14:09;15.98;;;12.95;;
78197;SDS011;67472;51.554;7.812;2023-07-20T05:16:59;15.88;;;13.07;;
78197;SDS011;67472;51.554;7.812;2023-07-20T05:19:45;16.20;;;13.27;;
78197;SDS011;67472;51.554;7.812;2023-07-20T05:22:32;14.15;;;12.35;;
78197;SDS011;67472;51.554;7.812;2023-07-20T05:25:19;18.67;;;13.55;;
78197;SDS011;67472;51.554;7.812;2023-07-20T05:28:09;19.48;;;14.18;;
78197;SDS011;67472;51.554;7.812;2023-07-20T05:30:56;16.25;;;13.73;;
78197;SDS011;67472;51.554;7.812;2023-07-20T05:33:43;21.88;;;13.93;;
78197;SDS011;67472;51.554;7.812;2023-07-20T05:36:31;17.35;;;14.23;;
78197;SDS011;67472;51.554;7.812;2023-07-20T05:39:28;15.75;;;12.75;;
78197;SDS011;67472;51.554;7.812;2023-07-20T05:42:14;18.38;;;13.45;;
78197;SDS011;67472;51.554;7.812;2023-07-20T05:45:03;18.52;;;12.73;;
78197;SDS011;67472;51.554;7.812;2023-07-20T05:47:53;13.75;;;12.20;;
78197;SDS011;67472;51.554;7.812;2023-07-20T05:50:41;13.90;;;12.00;;
78197;SDS011;67472;51.554;7.812;2023-07-20T05:53:28;14.68;;;11.77;;
78197;SDS011;67472;51.554;7.812;2023-07-20T05:56:15;12.43;;;10.05;;
78197;SDS011;67472;51.554;7.812;2023-07-20T05:59:02;13.43;;;10.52;;
78197;SDS011;67472;51.554;7.812;2023-07-20T06:01:50;12.63;;;9.73;;
78197;SDS011;67472;51.554;7.812;2023-07-20T06:04:36;11.30;;;9.13;;
78197;SDS011;67472;51.554;7.812;2023-07-20T06:07:23;11.05;;;9.68;;
78197;SDS011;67472;51.554;7.812;2023-07-20T06:10:09;14.00;;;10.25;;
78197;SDS011;67472;51.554;7.812;2023-07-20T06:12:59;12.57;;;10.57;;
78197;SDS011;67472;51.554;7.812;2023-07-20T06:15:49;12.30;;;10.50;;
78197;SDS011;67472;51.554;7.812;2023-07-20T06:18:42;15.77;;;11.13;;
78197;SDS011;67472;51.554;7.812;2023-07-20T06:21:29;12.68;;;10.32;;
78197;SDS011;67472;51.554;7.812;2023-07-20T06:24:25;14.60;;;12.48;;
78197;SDS011;67472;51.554;7.812;2023-07-20T06:30:25;10.30;;;9.30;;
78197;SDS011;67472;51.554;7.812;2023-07-20T06:33:14;10.45;;;9.45;;
78197;SDS011;67472;51.554;7.812;2023-07-20T06:36:06;12.43;;;9.30;;
78197;SDS011;67472;51.554;7.812;2023-07-20T06:39:12;11.57;;;9.25;;
78197;SDS011;67472;51.554;7.812;2023-07-20T06:42:21;12.07;;;9.45;;
78197;SDS011;67472;51.554;7.812;2023-07-20T06:45:08;11.35;;;9.35;;
78197;SDS011;67472;51.554;7.812;2023-07-20T06:48:10;11.00;;;9.90;;
78197;SDS011;67472;51.554;7.812;2023-07-20T06:50:58;14.75;;;9.90;;
78197;SDS011;67472;51.554;7.812;2023-07-20T06:53:53;13.50;;;11.38;;
78197;SDS011;67472;51.554;7.812;2023-07-20T06:56:45;13.40;;;10.98;;
78197;SDS011;67472;51.554;7.812;2023-07-20T06:59:40;12.38;;;11.07;;
78197;SDS011;67472;51.554;7.812;2023-07-20T07:02:34;12.10;;;10.88;;
78197;SDS011;67472;51.554;7.812;2023-07-20T07:05:20;16.52;;;13.05;;
78197;SDS011;67472;51.554;7.812;2023-07-20T07:08:08;16.60;;;12.27;;
78197;SDS011;67472;51.554;7.812;2023-07-20T07:10:56;16.33;;;13.55;;
78197;SDS011;67472;51.554;7.812;2023-07-20T07:13:42;14.80;;;12.52;;
78197;SDS011;67472;51.554;7.812;2023-07-20T07:16:34;13.65;;;10.77;;
78197;SDS011;67472;51.554;7.812;2023-07-20T07:19:21;13.50;;;11.02;;
78197;SDS011;67472;51.554;7.812;2023-07-20T07:22:07;13.90;;;11.30;;
78197;SDS011;67472;51.554;7.812;2023-07-20T07:24:54;11.70;;;10.50;;
78197;SDS011;67472;51.554;7.812;2023-07-20T07:27:43;11.13;;;10.02;;
78197;SDS011;67472;51.554;7.812;2023-07-20T07:30:29;11.02;;;9.88;;
78197;SDS011;67472;51.554;7.812;2023-07-20T07:33:16;12.02;;;10.23;;
78197;SDS011;67472;51.554;7.812;2023-07-20T07:36:02;12.15;;;10.88;;
78197;SDS011;67472;51.554;7.812;2023-07-20T07:38:49;13.45;;;11.18;;
78197;SDS011;67472;51.554;7.812;2023-07-20T07:41:36;10.32;;;9.30;;
78197;SDS011;67472;51.554;7.812;2023-07-20T07:44:24;10.00;;;8.73;;
78197;SDS011;67472;51.554;7.812;2023-07-20T07:47:10;14.48;;;8.50;;
78197;SDS011;67472;51.554;7.812;2023-07-20T07:49:59;10.02;;;9.02;;
78197;SDS011;67472;51.554;7.812;2023-07-20T07:52:45;9.77;;;8.00;;
78197;SDS011;67472;51.554;7.812;2023-07-20T07:55:31;14.02;;;9.55;;
78197;SDS011;67472;51.554;7.812;2023-07-20T07:58:17;10.80;;;8.98;;
78197;SDS011;67472;51.554;7.812;2023-07-20T08:01:06;9.05;;;7.90;;
78197;SDS011;67472;51.554;7.812;2023-07-20T08:03:52;8.40;;;7.60;;
78197;SDS011;67472;51.554;7.812;2023-07-20T08:06:39;8.75;;;6.75;;
78197;SDS011;67472;51.554;7.812;2023-07-20T08:09:26;7.53;;;6.82;;
78197;SDS011;67472;51.554;7.812;2023-07-20T08:12:12;8.00;;;7.28;;
78197;SDS011;67472;51.554;7.812;2023-07-20T08:15:02;6.53;;;5.90;;
78197;SDS011;67472;51.554;7.812;2023-07-20T08:17:51;6.93;;;6.22;;
78197;SDS011;67472;51.554;7.812;2023-07-20T08:20:38;7.50;;;6.63;;
78197;SDS011;67472;51.554;7.812;2023-07-20T08:23:24;6.43;;;5.82;;
78197;SDS011;67472;51.554;7.812;2023-07-20T08:26:12;7.80;;;7.00;;
78197;SDS011;67472;51.554;7.812;2023-07-20T08:28:58;6.55;;;5.18;;
78197;SDS011;67472;51.554;7.812;2023-07-20T08:31:44;7.45;;;5.65;;
78197;SDS011;67472;51.554;7.812;2023-07-20T08:34:33;7.90;;;4.95;;
78197;SDS011;67472;51.554;7.812;2023-07-20T08:37:19;4.65;;;4.25;;
78197;SDS011;67472;51.554;7.812;2023-07-20T08:40:06;5.25;;;4.75;;
78197;SDS011;67472;51.554;7.812;2023-07-20T08:42:54;4.35;;;3.95;;
78197;SDS011;67472;51.554;7.812;2023-07-20T08:45:42;6.63;;;3.15;;
78197;SDS011;67472;51.554;7.812;2023-07-20T08:48:32;3.35;;;3.10;;
78197;SDS011;67472;51.554;7.812;2023-07-20T08:51:21;2.58;;;2.38;;
78197;SDS011;67472;51.554;7.812;2023-07-20T08:54:07;1.60;;;1.50;;
78197;SDS011;67472;51.554;7.812;2023-07-20T08:56:55;1.58;;;1.48;;
78197;SDS011;67472;51.554;7.812;2023-07-20T08:59:43;1.65;;;1.55;;
78197;SDS011;67472;51.554;7.812;2023-07-20T09:02:30;2.00;;;1.42;;
78197;SDS011;67472;51.554;7.812;2023-07-20T09:05:22;1.60;;;1.50;;
78197;SDS011;67472;51.554;7.812;2023-07-20T09:08:11;1.88;;;1.30;;
78197;SDS011;67472;51.554;7.812;2023-07-20T09:10:58;1.83;;;1.23;;
78197;SDS011;67472;51.554;7.812;2023-07-20T09:13:44;1.15;;;0.93;;
78197;SDS011;67472;51.554;7.812;2023-07-20T09:16:31;1.50;;;0.88;;
78197;SDS011;67472;51.554;7.812;2023-07-20T09:19:18;4.85;;;0.95;;
78197;SDS011;67472;51.554;7.812;2023-07-20T09:22:05;1.17;;;1.08;;
78197;SDS011;67472;51.554;7.812;2023-07-20T09:24:53;2.60;;;0.93;;
78197;SDS011;67472;51.554;7.812;2023-07-20T09:27:39;2.08;;;1.15;;
78197;SDS011;67472;51.554;7.812;2023-07-20T09:30:28;1.23;;;1.13;;
78197;SDS011;67472;51.554;7.812;2023-07-20T09:33:18;1.10;;;1.10;;
78197;SDS011;67472;51.554;7.812;2023-07-20T09:36:05;1.50;;;1.40;;
78197;SDS011;67472;51.554;7.812;2023-07-20T09:38:51;1.42;;;0.98;;
78197;SDS011;67472;51.554;7.812;2023-07-20T09:41:42;1.40;;;1.30;;
78197;SDS011;67472;51.554;7.812;2023-07-20T09:44:28;1.27;;;1.20;;
78197;SDS011;67472;51.554;7.812;2023-07-20T09:47:14;1.65;;;1.42;;
78197;SDS011;67472;51.554;7.812;2023-07-20T09:50:07;2.10;;;1.45;;
78197;SDS011;67472;51.554;7.812;2023-07-20T09:52:56;1.00;;;0.90;;
78197;SDS011;67472;51.554;7.812;2023-07-20T09:55:44;5.75;;;1.25;;
78197;SDS011;67472;51.554;7.812;2023-07-20T09:58:33;1.00;;;0.88;;
78197;SDS011;67472;51.554;7.812;2023-07-20T10:01:20;1.10;;;1.00;;
78197;SDS011;67472;51.554;7.812;2023-07-20T10:04:07;2.75;;;0.70;;
78197;SDS011;67472;51.554;7.812;2023-07-20T10:06:55;1.05;;;0.90;;
78197;SDS011;67472;51.554;7.812;2023-07-20T10:09:45;0.57;;;0.57;;
78197;SDS011;67472;51.554;7.812;2023-07-20T10:12:34;1.00;;;0.80;;
78197;SDS011;67472;51.554;7.812;2023-07-20T10:15:24;1.27;;;0.80;;
78197;SDS011;67472;51.554;7.812;2023-07-20T10:18:16;1.20;;;0.88;;
78197;SDS011;67472;51.554;7.812;2023-07-20T10:21:08;2.30;;;0.73;;
78197;SDS011;67472;51.554;7.812;2023-07-20T10:23:55;1.08;;;0.98;;
78197;SDS011;67472;51.554;7.812;2023-07-20T10:26:43;1.95;;;1.02;;
78197;SDS011;67472;51.554;7.812;2023-07-20T10:29:30;0.93;;;0.73;;
78197;SDS011;67472;51.554;7.812;2023-07-20T10:32:19;1.08;;;0.60;;
78197;SDS011;67472;51.554;7.812;2023-07-20T10:35:11;0.50;;;0.50;;
78197;SDS011;67472;51.554;7.812;2023-07-20T10:38:02;0.60;;;0.60;;
78197;SDS011;67472;51.554;7.812;2023-07-20T10:40:55;0.60;;;0.60;;
78197;SDS011;67472;51.554;7.812;2023-07-20T10:43:42;2.40;;;0.70;;
78197;SDS011;67472;51.554;7.812;2023-07-20T10:46:36;3.00;;;0.70;;
78197;SDS011;67472;51.554;7.812;2023-07-20T10:49:32;0.57;;;0.57;;
78197;SDS011;67472;51.554;7.812;2023-07-20T10:52:20;1.95;;;0.50;;
78197;SDS011;67472;51.554;7.812;2023-07-20T10:55:13;0.50;;;0.50;;
78197;SDS011;67472;51.554;7.812;2023-07-20T10:58:06;1.50;;;0.73;;
78197;SDS011;67472;51.554;7.812;2023-07-20T11:01:02;0.82;;;0.55;;
78197;SDS011;67472;51.554;7.812;2023-07-20T11:03:51;1.08;;;0.60;;
78197;SDS011;67472;51.554;7.812;2023-07-20T11:06:44;0.57;;;0.57;;
78197;SDS011;67472;51.554;7.812;2023-07-20T11:09:33;2.60;;;0.40;;
78197;SDS011;67472;51.554;7.812;2023-07-20T11:12:21;1.77;;;0.60;;
78197;SDS011;67472;51.554;7.812;2023-07-20T11:15:08;1.33;;;0.55;;
78197;SDS011;67472;51.554;7.812;2023-07-20T11:18:02;0.85;;;0.60;;
78197;SDS011;67472;51.554;7.812;2023-07-20T11:20:57;0.63;;;0.63;;
78197;SDS011;67472;51.554;7.812;2023-07-20T11:23:45;11.13;;;1.98;;
78197;SDS011;67472;51.554;7.812;2023-07-20T11:26:43;2.72;;;0.70;;
78197;SDS011;67472;51.554;7.812;2023-07-20T11:29:30;2.70;;;0.73;;
78197;SDS011;67472;51.554;7.812;2023-07-20T11:32:19;0.90;;;0.40;;
78197;SDS011;67472;51.554;7.812;2023-07-20T11:35:12;1.33;;;0.63;;
78197;SDS011;67472;51.554;7.812;2023-07-20T11:37:59;0.93;;;0.60;;
78197;SDS011;67472;51.554;7.812;2023-07-20T11:40:47;0.50;;;0.40;;
78197;SDS011;67472;51.554;7.812;2023-07-20T11:43:34;0.88;;;0.52;;
78197;SDS011;67472;51.554;7.812;2023-07-20T11:46:21;1.25;;;0.50;;
78197;SDS011;67472;51.554;7.812;2023-07-20T11:49:08;0.75;;;0.40;;
78197;SDS011;67472;51.554;7.812;2023-07-20T11:51:55;2.28;;;0.40;;
78197;SDS011;67472;51.554;7.812;2023-07-20T11:54:42;0.90;;;0.80;;
78197;SDS011;67472;51.554;7.812;2023-07-20T11:57:30;0.60;;;0.60;;
78197;SDS011;67472;51.554;7.812;2023-07-20T12:00:17;2.75;;;0.57;;
78197;SDS011;67472;51.554;7.812;2023-07-20T12:03:05;0.50;;;0.50;;
78197;SDS011;67472;51.554;7.812;2023-07-20T12:05:52;0.45;;;0.40;;
78197;SDS011;67472;51.554;7.812;2023-07-20T12:08:39;0.45;;;0.40;;
78197;SDS011;67472;51.554;7.812;2023-07-20T12:11:33;0.30;;;0.30;;
78197;SDS011;67472;51.554;7.812;2023-07-20T12:14:24;0.50;;;0.50;;
78197;SDS011;67472;51.554;7.812;2023-07-20T12:17:11;0.50;;;0.50;;
78197;SDS011;67472;51.554;7.812;2023-07-20T12:19:59;0.40;;;0.40;;
78197;SDS011;67472;51.554;7.812;2023-07-20T12:22:45;0.60;;;0.40;;
78197;SDS011;67472;51.554;7.812;2023-07-20T12:25:36;0.65;;;0.50;;
78197;SDS011;67472;51.554;7.812;2023-07-20T12:28:24;1.35;;;0.60;;
78197;SDS011;67472;51.554;7.812;2023-07-20T12:31:12;0.60;;;0.60;;
78197;SDS011;67472;51.554;7.812;2023-07-20T12:33:58;1.67;;;0.80;;
78197;SDS011;67472;51.554;7.812;2023-07-20T12:36:45;0.50;;;0.50;;
78197;SDS011;67472;51.554;7.812;2023-07-20T12:39:31;0.68;;;0.68;;
78197;SDS011;67472;51.554;7.812;2023-07-20T12:42:18;0.50;;;0.50;;
78197;SDS011;67472;51.554;7.812;2023-07-20T12:45:04;1.33;;;0.50;;
78197;SDS011;67472;51.554;7.812;2023-07-20T12:47:53;3.00;;;0.70;;
78197;SDS011;67472;51.554;7.812;2023-07-20T12:50:39;2.20;;;0.50;;
78197;SDS011;67472;51.554;7.812;2023-07-20T12:53:26;2.28;;;0.75;;
78197;SDS011;67472;51.554;7.812;2023-07-20T12:56:12;0.75;;;0.70;;
78197;SDS011;67472;51.554;7.812;2023-07-20T12:58:58;0.80;;;0.80;;
78197;SDS011;67472;51.554;7.812;2023-07-20T13:01:47;1.33;;;0.90;;
78197;SDS011;67472;51.554;7.812;2023-07-20T13:04:35;1.02;;;0.80;;
78197;SDS011;67472;51.554;7.812;2023-07-20T13:07:28;0.52;;;0.52;;
78197;SDS011;67472;51.554;7.812;2023-07-20T13:10:16;0.60;;;0.60;;
78197;SDS011;67472;51.554;7.812;2023-07-20T13:13:02;0.98;;;0.50;;
78197;SDS011;67472;51.554;7.812;2023-07-20T13:15:48;0.63;;;0.60;;
78197;SDS011;67472;51.554;7.812;2023-07-20T13:18:35;0.55;;;0.55;;
78197;SDS011;67472;51.554;7.812;2023-07-20T13:21:23;0.60;;;0.60;;
78197;SDS011;67472;51.554;7.812;2023-07-20T13:24:10;0.50;;;0.50;;
78197;SDS011;67472;51.554;7.812;2023-07-20T13:26:56;1.52;;;0.70;;
78197;SDS011;67472;51.554;7.812;2023-07-20T13:29:42;0.52;;;0.52;;
78197;SDS011;67472;51.554;7.812;2023-07-20T13:32:29;2.63;;;1.83;;
78197;SDS011;67472;51.554;7.812;2023-07-20T13:35:15;0.55;;;0.55;;
78197;SDS011;67472;51.554;7.812;2023-07-20T13:38:02;3.58;;;1.80;;
78197;SDS011;67472;51.554;7.812;2023-07-20T13:40:49;0.90;;;0.70;;
78197;SDS011;67472;51.554;7.812;2023-07-20T13:43:35;3.13;;;1.20;;
78197;SDS011;67472;51.554;7.812;2023-07-20T13:46:21;0.70;;;0.70;;
78197;SDS011;67472;51.554;7.812;2023-07-20T13:49:07;1.25;;;1.10;;
78197;SDS011;67472;51.554;7.812;2023-07-20T13:51:54;6.03;;;2.65;;
78197;SDS011;67472;51.554;7.812;2023-07-20T13:54:43;2.33;;;1.42;;
78197;SDS011;67472;51.554;7.812;2023-07-20T13:57:29;1.00;;;1.00;;
78197;SDS011;67472;51.554;7.812;2023-07-20T14:00:16;3.22;;;1.65;;
78197;SDS011;67472;51.554;7.812;2023-07-20T14:03:03;1.15;;;1.00;;
78197;SDS011;67472;51.554;7.812;2023-07-20T14:05:49;0.60;;;0.60;;
78197;SDS011;67472;51.554;7.812;2023-07-20T14:08:36;1.00;;;0.80;;
78197;SDS011;67472;51.554;7.812;2023-07-20T14:11:24;0.60;;;0.60;;
78197;SDS011;67472;51.554;7.812;2023-07-20T14:14:10;2.58;;;1.33;;
78197;SDS011;67472;51.554;7.812;2023-07-20T14:16:56;1.95;;;1.40;;
78197;SDS011;67472;51.554;7.812;2023-07-20T14:19:42;5.45;;;2.42;;
78197;SDS011;67472;51.554;7.812;2023-07-20T14:22:29;2.80;;;1.30;;
78197;SDS011;67472;51.554;7.812;2023-07-20T14:25:15;0.70;;;0.70;;
78197;SDS011;67472;51.554;7.812;2023-07-20T14:28:04;4.47;;;2.47;;
78197;SDS011;67472;51.554;7.812;2023-07-20T14:30:50;12.20;;;3.28;;
78197;SDS011;67472;51.554;7.812;2023-07-20T14:33:36;6.30;;;2.17;;
78197;SDS011;67472;51.554;7.812;2023-07-20T14:36:23;3.45;;;0.90;;
78197;SDS011;67472;51.554;7.812;2023-07-20T14:39:08;1.20;;;1.10;;
78197;SDS011;67472;51.554;7.812;2023-07-20T14:41:55;1.30;;;1.00;;
78197;SDS011;67472;51.554;7.812;2023-07-20T14:44:43;0.47;;;0.47;;
78197;SDS011;67472;51.554;7.812;2023-07-20T14:47:30;0.82;;;0.80;;
78197;SDS011;67472;51.554;7.812;2023-07-20T14:50:16;4.88;;;2.05;;
78197;SDS011;67472;51.554;7.812;2023-07-20T14:53:04;1.10;;;0.80;;
78197;SDS011;67472;51.554;7.812;2023-07-20T14:55:50;2.35;;;1.50;;
78197;SDS011;67472;51.554;7.812;2023-07-20T14:58:37;2.58;;;0.98;;
78197;SDS011;67472;51.554;7.812;2023-07-20T15:01:24;5.13;;;2.38;;
78197;SDS011;67472;51.554;7.812;2023-07-20T15:04:10;2.05;;;0.60;;
78197;SDS011;67472;51.554;7.812;2023-07-20T15:06:57;4.72;;;1.90;;
78197;SDS011;67472;51.554;7.812;2023-07-20T15:09:43;6.60;;;2.40;;
78197;SDS011;67472;51.554;7.812;2023-07-20T15:12:30;3.28;;;0.60;;
78197;SDS011;67472;51.554;7.812;2023-07-20T15:15:17;12.10;;;6.22;;
78197;SDS011;67472;51.554;7.812;2023-07-20T15:18:05;1.15;;;0.88;;
78197;SDS011;67472;51.554;7.812;2023-07-20T15:20:51;3.78;;;2.05;;
78197;SDS011;67472;51.554;7.812;2023-07-20T15:23:38;4.00;;;2.10;;
78197;SDS011;67472;51.554;7.812;2023-07-20T15:26:25;4.13;;;2.38;;
78197;SDS011;67472;51.554;7.812;2023-07-20T15:29:11;3.53;;;2.22;;
78197;SDS011;67472;51.554;7.812;2023-07-20T15:31:58;9.55;;;3.00;;
78197;SDS011;67472;51.554;7.812;2023-07-20T15:34:47;3.67;;;1.40;;
78197;SDS011;67472;51.554;7.812;2023-07-20T15:37:33;3.75;;;1.77;;
78197;SDS011;67472;51.554;7.812;2023-07-20T15:40:22;5.20;;;2.47;;
78197;SDS011;67472;51.554;7.812;2023-07-20T15:43:09;4.10;;;1.40;;
78197;SDS011;67472;51.554;7.812;2023-07-20T15:46:00;5.25;;;2.60;;
78197;SDS011;67472;51.554;7.812;2023-07-20T15:48:57;2.72;;;1.70;;
78197;SDS011;67472;51.554;7.812;2023-07-20T15:51:45;2.17;;;1.38;;
78197;SDS011;67472;51.554;7.812;2023-07-20T15:54:32;1.33;;;0.60;;
78197;SDS011;67472;51.554;7.812;2023-07-20T15:57:19;3.92;;;1.90;;
78197;SDS011;67472;51.554;7.812;2023-07-20T16:00:05;2.90;;;1.48;;
78197;SDS011;67472;51.554;7.812;2023-07-20T16:02:57;3.47;;;1.60;;
78197;SDS011;67472;51.554;7.812;2023-07-20T16:05:44;2.47;;;0.90;;
78197;SDS011;67472;51.554;7.812;2023-07-20T16:08:31;1.13;;;0.80;;
78197;SDS011;67472;51.554;7.812;2023-07-20T16:11:18;0.85;;;0.85;;
78197;SDS011;67472;51.554;7.812;2023-07-20T16:14:06;6.43;;;2.97;;
78197;SDS011;67472;51.554;7.812;2023-07-20T16:16:53;0.70;;;0.70;;
78197;SDS011;67472;51.554;7.812;2023-07-20T16:19:40;3.33;;;0.70;;
78197;SDS011;67472;51.554;7.812;2023-07-20T16:22:28;10.65;;;2.80;;
78197;SDS011;67472;51.554;7.812;2023-07-20T16:25:16;8.07;;;3.40;;
78197;SDS011;67472;51.554;7.812;2023-07-20T16:28:03;0.52;;;0.52;;
78197;SDS011;67472;51.554;7.812;2023-07-20T16:30:50;0.95;;;0.88;;
78197;SDS011;67472;51.554;7.812;2023-07-20T16:33:37;1.13;;;1.00;;
78197;SDS011;67472;51.554;7.812;2023-07-20T16:36:23;6.00;;;2.78;;
78197;SDS011;67472;51.554;7.812;2023-07-20T16:39:10;6.10;;;2.22;;
78197;SDS011;67472;51.554;7.812;2023-07-20T16:41:58;1.10;;;1.00;;
78197;SDS011;67472;51.554;7.812;2023-07-20T16:44:49;0.60;;;0.60;;
78197;SDS011;67472;51.554;7.812;2023-07-20T16:47:35;0.75;;;0.75;;